ADDS METAR Data INFO
IDs: Format: Raw Decoded Include TAF

Data at: 0835 UTC 21 Oct 2017

KCOU 210754Z AUTO 16010KT 10SM CLR 17/13 A2997 RMK AO2 SLP144 T01670133
KCOU 210654Z AUTO 16010KT 10SM CLR 17/13 A2998 RMK AO2 SLP147 T01670133
KCOU 210554Z AUTO 16009KT 10SM CLR 17/13 A2998 RMK AO2 SLP146 T01670128 10194 20167 402280100 50000
KCOU 210454Z AUTO 16012KT 10SM CLR 17/13 A2998 RMK AO2 SLP147 T01720128
KCOU 210354Z AUTO 16012KT 10SM CLR 17/12 A2998 RMK AO2 SLP149 T01720122
KCOU 210254Z AUTO 15009KT 10SM CLR 19/12 A2998 RMK AO2 SLP147 T01890122 56004
KCOU 210154Z 16012KT 10SM CLR 19/12 A2998 RMK AO2 SLP150 T01940117
KCOU 210054Z 15012KT 10SM CLR 19/11 A2998 RMK AO2 SLP149 T01940111
KCOU 202354Z 15008KT 10SM FEW090 19/12 A2999 RMK AO2 SLP152 T01890117 10228 20189 57009
KCOU 202254Z 17006KT 10SM FEW120 19/12 A3000 RMK AO2 SLP155 VIRGA T01940122
KCOU 202154Z 16007KT 10SM CLR 21/11 A3001 RMK AO2 SLP158 T02060111
KCOU 202054Z 16010KT 10SM CLR 22/11 A3002 RMK AO2 SLP161 T02170111 56030
KCOU 201954Z 15009KT 10SM CLR 22/11 A3003 RMK AO2 SLP166 T02220111
KCOU 201854Z 16013KT 10SM CLR 22/12 A3007 RMK AO2 SLP180 T02170122
KCOU 201754Z 18009KT 10SM CLR 21/13 A3011 RMK AO2 SLP192 T02060128 10206 20100 58018
KCOU 201654Z 18008KT 10SM CLR 18/12 A3014 RMK AO2 SLP202 T01830122
KCOU 201554Z 18007KT 10SM CLR 17/12 A3015 RMK AO2 SLP207 T01670122
KCOU 201454Z 18008KT 10SM CLR 15/12 A3016 RMK AO2 SLP210 T01500122 58000
KCOU 201354Z 16007KT 10SM CLR 13/11 A3017 RMK AO2 SLP212 T01280111
KCOU 201254Z 15007KT 10SM CLR 11/09 A3017 RMK AO2 SLP213 T01060094
KCOU 201154Z 16006KT 10SM CLR 11/09 A3016 RMK AO2 SLP212 T01060089 10144 20100 50007
KCOU 201054Z AUTO 18006KT 10SM CLR 11/09 A3017 RMK AO2 SLP213 T01110089
KCOU 200954Z AUTO 17005KT 10SM CLR 13/09 A3015 RMK AO2 SLP205 T01330094
KCOU 200854Z AUTO 17005KT 10SM CLR 13/09 A3014 RMK AO2 SLP203 T01330094 53005
KCOU 200754Z AUTO 17005KT 10SM CLR 13/09 A3014 RMK AO2 SLP202 T01330094
KCOU 200654Z AUTO 17005KT 10SM CLR 14/09 A3013 RMK AO2 SLP198 T01390094
KCOU 200554Z AUTO 16007KT 10SM CLR 14/10 A3013 RMK AO2 SLP198 T01440100 10217 20139 402560094 52000
KCOU 200454Z AUTO 17005KT 10SM CLR 14/11 A3013 RMK AO2 SLP197 T01440106
KCOU 200354Z AUTO 16006KT 10SM CLR 16/11 A3013 RMK AO2 SLP198 T01610106
KCOU 200254Z AUTO 16005KT 10SM CLR 18/11 A3013 RMK AO2 SLP198 T01830111 53003
KCOU 200154Z 14005KT 10SM CLR 19/11 A3012 RMK AO2 SLP197 T01890111
KCOU 200054Z 14006KT 10SM CLR 21/11 A3012 RMK AO2 SLP198 T02060111
KCOU 192354Z 15005KT 10SM CLR 22/11 A3012 RMK AO2 SLP196 T02170111 10256 20217 55001
KCOU 192254Z 15004KT 10SM CLR 24/11 A3012 RMK AO2 SLP195 T02390111
KCOU 192154Z 18007KT 10SM CLR 25/11 A3012 RMK AO2 SLP194 T02500111
KCOU 192054Z AUTO 19008KT 10SM CLR 26/11 A3012 RMK AO2 SLP196 T02560111 56015